Skip Navigation Links Skip Navigation Links

Current Weather

Port Auth-Dwntn-Manhattan/Wall St, New York

For information only: do not use for flight planning or navigation.
Latest weather
Observation time Monday, June 21, 2021 8:56 PM EDT
Local time Monday, June 21, 2021 9:41 PM EDT
Flight conditions Visual Meteorological Conditions
Winds
Wind direction West-Southwest (250°)
Wind speed 8 mph
Visibility 10 mi.
Sky condition
Ceiling unlimited
Sky clear
Temperature 78°F
Dewpoint 71°F
Altimeter 29.64 in.Hg
Derived measurements
Relative humidity 79%
Heat index 78°F
Density altitude 1904 ft.
Sea-level pressure 29.63 in.Hg
Remarks
Fully automated report.
Automated weather observing station with precipitation discriminator.
METAR KJRB 220056Z AUTO 25007KT 10SM CLR 26/22 A2964 RMK AO2 SLP034 T02560217

Settings

Location code

InnerDrive.Weather 4.0.6770.0 Release CLR 4.0.30319.42000
Copyright ©2018 Inner Drive Technology. All rights reserved. Portions Copyright ©1986-2018 David Braverman.

Find weather

Site navigation


Skip Navigation Links

Place info

Page info

PayPal - The safer, easier way to pay online!

Return home.

Copyright ©2021 Inner Drive Technology. Purveyors of fine, hand-crafted computer software. Page printed 2021-06-22T01:41:21 UTC.